Time;durP1;ratioP1;P1;durP2;ratioP2;P2;SDS_P1;SDS_P2;PMS_P1;PMS_P2;Temp;Humidity;BMP_temperature;BMP_pressure;BME280_temperature;BME280_humidity;BME280_pressure;Samples;Min_cycle;Max_cycle;Signal;HPM_P1;HPM_P2
2022/06/12 00:02:11;;;;;;;4.03;1.60;;;;;;;14.38;74.18;97115.68;1671766;85;20976;-82
2022/06/12 00:04:37;;;;;;;2.85;1.52;;;;;;;14.32;74.24;97111.22;1672370;85;20959;-82
2022/06/12 00:07:03;;;;;;;2.55;1.80;;;;;;;14.27;74.13;97111.75;1688297;85;20987;-82
2022/06/12 00:09:29;;;;;;;2.83;1.27;;;;;;;14.25;74.24;97115.55;1689004;84;20978;-82
2022/06/12 00:11:56;;;;;;;4.90;1.67;;;;;;;14.23;74.44;97114.44;1674172;85;21097;-82
2022/06/12 00:14:21;;;;;;;2.45;1.60;;;;;;;14.20;74.48;97110.89;1669673;85;21462;-82
2022/06/12 00:16:47;;;;;;;2.90;1.92;;;;;;;14.18;74.53;97109.47;1672161;85;21004;-82
2022/06/12 00:19:13;;;;;;;3.33;1.60;;;;;;;14.12;74.63;97103.16;1671906;85;21035;-82
2022/06/12 00:21:39;;;;;;;3.50;1.65;;;;;;;14.08;74.98;97109.26;1679224;84;21323;-82
2022/06/12 00:24:10;;;;;;;3.47;1.60;;;;;;;14.05;75.16;97110.13;1684527;84;20955;-82
2022/06/12 00:26:40;;;;;;;2.30;1.55;;;;;;;14.02;75.37;97106.59;1674308;84;20967;-82
2022/06/12 00:29:24;;;;;;;2.55;1.32;;;;;;;14.02;75.42;97109.20;1684300;84;21002;-82
2022/06/12 00:32:03;;;;;;;3.55;1.55;;;;;;;14.01;75.65;97107.59;1689751;84;21141;-82
2022/06/12 00:34:33;;;;;;;3.87;1.47;;;;;;;13.99;75.64;97109.55;1726529;82;21043;-82
2022/06/12 00:36:59;;;;;;;2.65;1.70;;;;;;;13.97;76.00;97107.13;1730797;82;21034;-82
2022/06/12 00:39:25;;;;;;;2.92;1.80;;;;;;;13.95;76.34;97112.23;1731621;82;20996;-82
2022/06/12 00:41:53;;;;;;;2.27;1.98;;;;;;;13.93;76.56;97104.58;1740581;82;20970;-82
2022/06/12 00:44:25;;;;;;;2.20;1.92;;;;;;;13.91;76.59;97097.42;1689822;84;21093;-82
2022/06/12 00:46:59;;;;;;;1.27;1.10;;;;;;;13.91;76.85;97097.92;1682005;84;21055;-82
2022/06/12 00:49:42;;;;;;;3.98;2.00;;;;;;;13.90;76.85;97097.11;1683054;84;21003;-82
2022/06/12 00:52:22;;;;;;;2.67;1.60;;;;;;;13.91;77.01;97099.23;1693480;84;21242;-82
2022/06/12 00:54:51;;;;;;;2.83;1.90;;;;;;;13.90;77.32;97097.61;1681264;84;21051;-82
2022/06/12 00:57:19;;;;;;;1.70;1.60;;;;;;;13.88;77.51;97096.99;1691736;84;21035;-82
2022/06/12 00:59:52;;;;;;;2.90;1.50;;;;;;;13.84;77.50;97094.45;1728766;82;20971;-82
2022/06/12 01:02:22;;;;;;;2.85;1.57;;;;;;;13.84;77.78;97093.14;1726495;82;21431;-82
2022/06/12 01:07:35;;;;;;;2.83;1.45;;;;;;;13.81;77.75;97088.56;1723077;82;20991;-82
2022/06/12 01:10:04;;;;;;;3.10;1.90;;;;;;;13.81;77.88;97085.95;1692347;84;20971;-82
2022/06/12 01:12:37;;;;;;;2.87;2.10;;;;;;;13.79;78.01;97084.03;1702936;84;20990;-82
2022/06/12 01:15:14;;;;;;;2.60;1.77;;;;;;;13.77;77.94;97085.21;1726783;82;20994;-82
2022/06/12 01:17:40;;;;;;;2.58;1.47;;;;;;;13.74;77.90;97087.70;1663063;84;20991;-82
2022/06/12 01:20:10;;;;;;;1.40;1.30;;;;;;;13.71;77.76;97085.46;1678664;83;21007;-82
2022/06/12 01:23:02;;;;;;;2.30;1.57;;;;;;;13.70;77.85;97086.45;1708651;82;21347;-82
2022/06/12 01:25:50;;;;;;;7.50;1.92;;;;;;;13.70;77.52;97082.54;1723161;82;21106;-82
2022/06/12 01:28:48;;;;;;;3.05;1.98;;;;;;;13.69;77.63;97080.11;1692794;83;20953;-83
2022/06/12 01:31:46;;;;;;;4.22;2.20;;;;;;;13.65;78.03;97079.65;1688404;83;21053;-83
2022/06/12 01:34:24;;;;;;;2.75;1.80;;;;;;;13.58;78.37;97075.36;1725846;82;21389;-83
2022/06/12 01:37:23;;;;;;;2.37;1.60;;;;;;;13.55;78.59;97080.45;1740770;82;20985;-83
2022/06/12 01:40:12;;;;;;;4.80;1.60;;;;;;;13.55;78.83;97082.26;1736720;82;20967;-83
2022/06/12 01:43:04;;;;;;;3.10;1.80;;;;;;;13.52;79.02;97078.22;1728968;82;20934;-83
2022/06/12 01:45:39;;;;;;;2.77;1.60;;;;;;;13.52;79.03;97078.22;1704944;83;21047;-83
2022/06/12 01:48:19;;;;;;;3.00;2.02;;;;;;;13.51;79.31;97077.91;1703631;83;21058;-83
2022/06/12 01:51:12;;;;;;;2.80;2.30;;;;;;;13.49;79.66;97074.64;1725943;82;21034;-83
2022/06/12 01:53:55;;;;;;;2.22;1.70;;;;;;;13.45;79.73;97073.39;1706105;82;21321;-83
2022/06/12 01:56:36;;;;;;;2.52;1.87;;;;;;;13.43;79.77;97070.16;1700293;83;21029;-84
2022/06/12 01:59:29;;;;;;;4.28;1.80;;;;;;;13.41;79.91;97065.63;1725900;82;21370;-83
2022/06/12 02:01:58;;;;;;;4.05;1.70;;;;;;;13.40;79.95;97064.81;1722666;82;20982;-83
2022/06/12 02:04:44;;;;;;;1.60;1.50;;;;;;;13.39;79.98;97068.42;1707106;83;21058;-83
2022/06/12 02:07:23;;;;;;;3.62;1.98;;;;;;;13.38;79.98;97066.80;1685712;82;21015;-83
2022/06/12 02:10:12;;;;;;;3.72;1.90;;;;;;;13.35;80.05;97068.47;1717166;83;20995;-83
2022/06/12 02:15:35;;;;;;;2.33;1.95;;;;;;;13.31;80.46;97065.89;1718973;82;21062;-83
2022/06/12 02:18:20;;;;;;;4.90;1.90;;;;;;;13.28;80.69;97058.92;1726029;82;21090;-83
2022/06/12 02:21:09;;;;;;;2.98;2.17;;;;;;;13.29;80.75;97064.45;1695538;83;21001;-83
2022/06/12 02:23:46;;;;;;;4.22;1.80;;;;;;;13.29;80.90;97066.57;1675456;84;21028;-82
2022/06/12 02:26:15;;;;;;;2.10;1.75;;;;;;;13.29;80.85;97053.52;1726366;82;20960;-83
2022/06/12 02:28:55;;;;;;;2.45;2.20;;;;;;;13.30;80.89;97064.77;1705844;83;21014;-83
2022/06/12 02:31:28;;;;;;;2.12;1.92;;;;;;;13.28;81.05;97062.84;1685103;83;21000;-83
2022/06/12 02:34:02;;;;;;;3.80;1.87;;;;;;;13.26;81.13;97070.86;1723853;83;21064;-83
2022/06/12 02:36:33;;;;;;;5.40;2.72;;;;;;;13.23;81.15;97071.72;1726306;82;20978;-83
2022/06/12 02:39:07;;;;;;;2.10;1.90;;;;;;;13.22;81.30;97074.83;1725268;82;20962;-82
2022/06/12 02:42:02;;;;;;;2.17;1.82;;;;;;;13.23;81.30;97078.24;1710763;82;20989;-83
2022/06/12 02:44:45;;;;;;;2.70;1.75;;;;;;;13.21;81.30;97072.71;1697571;84;20971;-83
2022/06/12 02:47:16;;;;;;;4.00;1.98;;;;;;;13.21;81.32;97074.52;1707924;83;21525;-83
2022/06/12 02:49:43;;;;;;;3.58;2.08;;;;;;;13.20;81.50;97075.50;1726235;82;21356;-82
2022/06/12 02:52:18;;;;;;;4.10;2.00;;;;;;;13.18;81.56;97074.87;1726297;82;20933;-83
2022/06/12 02:55:04;;;;;;;2.65;2.12;;;;;;;13.18;81.77;97072.27;1695668;84;21003;-83
2022/06/12 02:57:35;;;;;;;3.83;1.95;;;;;;;13.17;81.96;97075.81;1708640;82;21394;-83
2022/06/12 03:00:25;;;;;;;4.35;1.62;;;;;;;13.16;82.13;97072.39;1736474;82;21011;-83
2022/06/12 03:03:23;;;;;;;4.60;1.92;;;;;;;13.17;82.20;97071.41;1722948;82;21122;-83
2022/06/12 03:05:52;;;;;;;3.08;1.90;;;;;;;13.19;82.39;97072.58;1730098;82;20971;-83
2022/06/12 03:08:24;;;;;;;4.60;2.10;;;;;;;13.20;82.43;97077.62;1736169;82;20946;-83
2022/06/12 03:11:15;;;;;;;2.65;1.95;;;;;;;13.21;82.44;97075.33;1708080;83;20970;-83
2022/06/12 03:13:41;;;;;;;2.90;1.87;;;;;;;13.21;82.59;97079.73;1722427;82;20939;-83
2022/06/12 03:16:24;;;;;;;2.42;2.05;;;;;;;13.20;82.78;97078.11;1709160;82;21034;-83
2022/06/12 03:19:07;;;;;;;3.52;1.77;;;;;;;13.19;82.88;97074.70;1718593;82;20988;-83
2022/06/12 03:21:56;;;;;;;3.90;1.98;;;;;;;13.18;83.03;97076.99;1727940;82;21357;-83
2022/06/12 03:24:53;;;;;;;2.17;1.82;;;;;;;13.21;83.19;97080.54;1670387;83;20979;-83
2022/06/12 03:27:39;;;;;;;3.25;1.70;;;;;;;13.24;83.30;97076.75;1698886;83;21102;-83
2022/06/12 03:30:17;;;;;;;2.05;1.47;;;;;;;13.27;83.36;97083.41;1705098;83;21059;-83
2022/06/12 03:33:12;;;;;;;5.17;2.08;;;;;;;13.29;83.63;97078.81;1705167;83;21015;-83
2022/06/12 03:36:10;;;;;;;3.42;2.00;;;;;;;13.31;83.72;97075.52;1726966;82;20974;-83
2022/06/12 03:38:55;;;;;;;5.90;2.70;;;;;;;13.30;83.95;97080.43;1735608;82;20950;-83
2022/06/12 03:41:54;;;;;;;2.40;1.80;;;;;;;13.29;84.02;97073.09;1684813;83;20930;-83
2022/06/12 03:44:37;;;;;;;2.42;2.02;;;;;;;13.30;84.14;97078.62;1724609;82;21015;-83
2022/06/12 03:47:29;;;;;;;2.55;1.80;;;;;;;13.30;84.22;97076.02;1705425;83;20956;-83
2022/06/12 03:50:34;;;;;;;2.83;1.72;;;;;;;13.33;84.30;97080.06;1720200;82;20953;-83
2022/06/12 03:53:14;;;;;;;2.10;1.87;;;;;;;13.34;84.44;97089.51;1703913;83;20956;-83
2022/06/12 03:58:47;;;;;;;1.77;1.67;;;;;;;13.38;84.65;97086.38;1721807;82;21337;-83
2022/06/12 04:01:14;;;;;;;3.02;2.10;;;;;;;13.40;84.70;97080.97;1725435;82;21044;-82
2022/06/12 04:03:42;;;;;;;2.55;2.15;;;;;;;13.40;85.00;97092.72;1725456;82;21055;-82
2022/06/12 04:06:12;;;;;;;2.65;2.12;;;;;;;13.40;85.16;97091.41;1704921;83;21090;-83
2022/06/12 04:08:46;;;;;;;1.90;1.80;;;;;;;13.39;85.33;97095.02;1704283;83;21480;-83
2022/06/12 04:11:14;;;;;;;2.10;1.75;;;;;;;13.40;85.55;97096.63;1719132;83;21002;-82
2022/06/12 04:13:40;;;;;;;3.10;1.90;;;;;;;13.42;85.69;97094.16;1746720;82;20919;-83
2022/06/12 04:16:26;;;;;;;2.37;1.80;;;;;;;13.46;85.76;97090.67;1738784;82;20954;-82
2022/06/12 04:18:52;;;;;;;2.47;1.67;;;;;;;13.48;85.84;97092.10;1722480;82;20994;-83
2022/06/12 04:21:38;;;;;;;3.87;1.80;;;;;;;13.53;85.94;97096.80;1725623;82;21022;-83
2022/06/12 04:24:31;;;;;;;3.72;1.82;;;;;;;13.57;86.05;97099.35;1708412;82;20946;-83
2022/06/12 04:27:18;;;;;;;2.37;1.92;;;;;;;13.61;86.16;97106.32;1725851;82;20990;-83
2022/06/12 04:30:00;;;;;;;3.22;2.15;;;;;;;13.63;86.24;97102.53;1801415;78;21340;-82
2022/06/12 04:32:28;;;;;;;6.42;2.52;;;;;;;13.66;86.27;97109.99;1799986;78;21444;-82
2022/06/12 04:34:54;;;;;;;2.35;2.15;;;;;;;13.73;86.48;97112.20;1801768;78;20970;-82
2022/06/12 04:37:26;;;;;;;3.20;1.90;;;;;;;13.77;86.51;97114.75;1801295;78;20948;-82
2022/06/12 04:39:52;;;;;;;5.50;1.90;;;;;;;13.82;86.41;97112.89;1801824;78;21305;-83
2022/06/12 04:42:20;;;;;;;6.60;2.47;;;;;;;13.83;86.40;97106.70;1759745;81;20997;-83
2022/06/12 04:44:46;;;;;;;5.22;2.33;;;;;;;13.90;86.61;97113.28;1737376;81;21372;-82
2022/06/12 04:47:15;;;;;;;2.42;1.80;;;;;;;13.99;86.68;97109.08;1765373;80;21034;-82
2022/06/12 04:49:40;;;;;;;3.50;2.00;;;;;;;14.05;86.57;97113.55;1763307;79;21013;-83
2022/06/12 04:52:08;;;;;;;2.15;1.92;;;;;;;14.08;86.62;97114.98;1820396;78;21022;-82
2022/06/12 04:54:35;;;;;;;4.25;1.80;;;;;;;14.09;86.79;97112.18;1825200;78;20931;-82
2022/06/12 04:57:01;;;;;;;4.78;2.00;;;;;;;14.18;87.03;97113.39;1822244;78;20977;-83
2022/06/12 04:59:27;;;;;;;4.37;2.45;;;;;;;14.24;86.72;97108.21;1806901;78;20991;-82
2022/06/12 05:01:53;;;;;;;2.67;2.08;;;;;;;14.28;86.74;97113.87;1766757;79;20961;-81
2022/06/12 05:04:20;;;;;;;3.20;2.20;;;;;;;14.33;87.03;97112.83;1795491;78;20997;-82
2022/06/12 05:06:49;;;;;;;2.27;2.08;;;;;;;14.36;86.98;97109.84;1802159;78;21045;-82
2022/06/12 05:09:14;;;;;;;3.80;2.30;;;;;;;14.39;87.06;97115.49;1810060;78;20955;-82
2022/06/12 05:11:41;;;;;;;5.53;2.45;;;;;;;14.42;87.16;97115.61;1805881;78;20982;-82
2022/06/12 05:14:06;;;;;;;2.70;2.37;;;;;;;14.46;87.45;97121.30;1809967;78;20970;-82
2022/06/12 05:16:38;;;;;;;4.55;2.65;;;;;;;14.49;87.31;97123.06;1809828;78;20982;-82
2022/06/12 05:19:05;;;;;;;2.80;2.08;;;;;;;14.54;87.28;97122.48;1774285;79;21054;-82
2022/06/12 05:21:31;;;;;;;2.45;1.82;;;;;;;14.59;87.45;97127.95;1779315;78;22056;-82
2022/06/12 05:23:58;;;;;;;2.10;1.77;;;;;;;14.66;87.25;97128.84;1774595;79;21082;-82
2022/06/12 05:26:23;;;;;;;6.17;2.30;;;;;;;14.71;87.40;97125.95;1774805;79;20979;-82
2022/06/12 05:28:50;;;;;;;2.72;2.50;;;;;;;14.76;87.54;97129.80;1766485;79;21026;-82
2022/06/12 05:31:16;;;;;;;4.50;2.52;;;;;;;14.79;87.68;97132.03;1742720;81;20996;-82
2022/06/12 05:33:45;;;;;;;2.80;2.50;;;;;;;14.82;87.74;97129.87;1712386;82;20933;-83
2022/06/12 05:36:12;;;;;;;3.70;2.58;;;;;;;14.87;87.84;97129.29;1710109;82;20941;-82
2022/06/12 05:38:40;;;;;;;4.42;2.72;;;;;;;14.90;87.56;97127.59;1714770;82;21034;-82
2022/06/12 05:41:06;;;;;;;4.72;3.02;;;;;;;14.96;87.55;97134.17;1735028;81;21084;-82
2022/06/12 05:43:31;;;;;;;6.15;3.10;;;;;;;15.00;87.46;97130.20;1743435;81;21333;-82
2022/06/12 05:45:57;;;;;;;2.90;2.60;;;;;;;15.07;87.57;97130.73;1712162;82;20986;-83
2022/06/12 05:48:23;;;;;;;3.27;2.95;;;;;;;15.14;87.46;97130.29;1766649;80;20981;-82
2022/06/12 05:50:54;;;;;;;3.90;3.10;;;;;;;15.20;87.49;97133.44;1768502;80;21411;-82
2022/06/12 05:53:21;;;;;;;4.25;3.20;;;;;;;15.24;87.46;97132.85;1780582;80;20931;-82
2022/06/12 05:55:47;;;;;;;4.62;3.10;;;;;;;15.28;87.56;97128.03;1721347;81;21014;-83
2022/06/12 05:58:14;;;;;;;6.37;3.58;;;;;;;15.34;87.40;97122.55;1768983;80;21054;-82
2022/06/12 06:00:39;;;;;;;3.58;2.87;;;;;;;15.39;87.18;97128.00;1768415;80;20943;-82
2022/06/12 06:03:05;;;;;;;3.12;2.70;;;;;;;15.43;87.01;97127.41;1773183;80;21869;-82
2022/06/12 06:05:31;;;;;;;3.60;2.80;;;;;;;15.48;86.97;97126.35;1766475;80;20942;-82
2022/06/12 06:07:57;;;;;;;3.67;3.00;;;;;;;15.55;86.95;97123.75;1743121;80;20963;-82
2022/06/12 06:10:26;;;;;;;5.87;3.15;;;;;;;15.65;86.53;97130.79;1745783;80;20974;-82
2022/06/12 06:12:52;;;;;;;3.55;3.22;;;;;;;15.72;86.46;97131.61;1775153;80;21391;-83
2022/06/12 06:15:19;;;;;;;4.53;2.90;;;;;;;15.81;86.56;97134.88;1771614;80;20912;-83
2022/06/12 06:17:45;;;;;;;4.15;3.47;;;;;;;15.90;86.35;97132.38;1769319;80;20959;-82
2022/06/12 06:20:16;;;;;;;2.85;2.50;;;;;;;16.01;85.76;97136.25;1775763;80;20971;-82
2022/06/12 06:22:42;;;;;;;3.25;2.87;;;;;;;16.09;85.83;97139.99;1746798;81;20978;-82
2022/06/12 06:25:09;;;;;;;4.70;2.98;;;;;;;16.14;85.57;97141.03;1736675;81;20939;-82
2022/06/12 06:27:34;;;;;;;4.47;3.33;;;;;;;16.26;84.74;97141.75;1741320;81;20971;-82
2022/06/12 06:30:00;;;;;;;4.30;3.37;;;;;;;16.41;84.60;97135.83;1765963;80;20963;-83
2022/06/12 06:32:26;;;;;;;5.17;3.58;;;;;;;16.56;83.68;97133.02;1781010;80;21361;-82
2022/06/12 06:34:52;;;;;;;4.20;3.47;;;;;;;16.70;83.42;97132.05;1776344;80;20982;-82
2022/06/12 06:37:17;;;;;;;3.75;3.17;;;;;;;16.81;82.72;97135.39;1776600;80;20951;-82
2022/06/12 06:39:43;;;;;;;3.30;2.85;;;;;;;16.93;83.69;97140.34;1774553;79;20981;-83
2022/06/12 06:42:10;;;;;;;4.35;2.98;;;;;;;17.02;84.23;97135.67;1799906;78;21367;-83
2022/06/12 06:47:08;;;;;;;6.35;3.20;;;;;;;17.23;84.10;97136.73;1753411;78;21006;-82
2022/06/12 06:49:34;;;;;;;5.12;3.15;;;;;;;17.32;82.16;97134.21;1802696;78;20943;-82
2022/06/12 06:52:00;;;;;;;5.12;3.00;;;;;;;17.46;79.29;97141.55;1775662;79;20970;-82
2022/06/12 06:54:26;;;;;;;5.58;2.92;;;;;;;17.63;81.56;97135.34;1805014;78;21413;-82
2022/06/12 06:56:52;;;;;;;3.77;3.15;;;;;;;17.72;79.53;97135.42;1802319;80;20962;-82
2022/06/12 06:59:18;;;;;;;2.90;2.60;;;;;;;17.84;79.19;97138.21;1774295;79;21408;-82
2022/06/12 07:01:45;;;;;;;3.15;2.85;;;;;;;17.97;79.99;97132.39;1772982;79;20970;-81
2022/06/12 07:04:11;;;;;;;3.87;2.90;;;;;;;18.10;79.36;97134.15;1785100;79;21274;-82
2022/06/12 07:06:38;;;;;;;2.87;2.67;;;;;;;18.18;80.21;97135.72;1794645;78;21081;-82
2022/06/12 07:09:04;;;;;;;4.85;3.02;;;;;;;18.25;79.29;97136.50;1795615;78;21026;-82
2022/06/12 07:11:29;;;;;;;5.37;3.27;;;;;;;18.30;76.46;97139.29;1809585;78;20943;-82
2022/06/12 07:13:56;;;;;;;3.58;2.72;;;;;;;18.41;77.87;97125.98;1815253;78;21404;-82
2022/06/12 07:16:23;;;;;;;5.28;2.90;;;;;;;18.53;78.19;97126.37;1790599;79;20949;-82
2022/06/12 07:18:49;;;;;;;4.35;2.92;;;;;;;18.64;76.93;97126.23;1798682;78;21027;-83
2022/06/12 07:21:14;;;;;;;5.22;2.85;;;;;;;18.69;76.71;97128.21;1800185;78;20982;-82
2022/06/12 07:23:41;;;;;;;3.77;2.60;;;;;;;18.71;76.60;97123.53;1802121;78;21070;-82
2022/06/12 07:26:11;;;;;;;5.72;3.17;;;;;;;18.77;76.20;97122.19;1814102;78;21020;-82
2022/06/12 07:28:37;;;;;;;3.95;3.12;;;;;;;18.80;75.11;97121.75;1774845;79;21022;-82
2022/06/12 07:31:04;;;;;;;3.83;2.85;;;;;;;18.88;73.47;97124.63;1811340;78;20990;-82
2022/06/12 07:33:30;;;;;;;4.15;2.55;;;;;;;18.95;72.55;97122.73;1793419;78;20991;-82
2022/06/12 07:35:56;;;;;;;6.58;2.92;;;;;;;19.04;71.32;97125.41;1796748;78;21298;-82
2022/06/12 07:38:24;;;;;;;4.50;2.80;;;;;;;19.12;72.30;97119.03;1774458;79;21025;-82
2022/06/12 07:40:57;;;;;;;7.65;3.02;;;;;;;19.09;70.32;97112.37;1802360;78;21003;-83
2022/06/12 07:43:24;;;;;;;5.03;3.05;;;;;;;19.22;67.91;97115.91;1797401;78;21005;-83
2022/06/12 07:45:51;;;;;;;6.45;2.67;;;;;;;19.29;70.61;97116.64;1799057;78;21042;-82
2022/06/12 07:48:19;;;;;;;3.22;2.87;;;;;;;19.32;65.88;97113.05;1801771;78;20973;-82
2022/06/12 07:50:45;;;;;;;4.83;2.80;;;;;;;19.39;70.36;97112.48;1800918;78;20982;-82
2022/06/12 07:53:11;;;;;;;3.20;2.90;;;;;;;19.40;70.42;97118.04;1801897;78;20950;-82
2022/06/12 07:55:37;;;;;;;4.20;2.62;;;;;;;19.45;66.47;97117.38;1801793;78;20937;-82
2022/06/12 07:58:03;;;;;;;4.10;2.75;;;;;;;19.53;66.24;97110.50;1804537;78;21069;-82
2022/06/12 08:00:30;;;;;;;6.10;2.95;;;;;;;19.62;66.79;97113.15;1801692;78;21003;-82
2022/06/12 08:02:56;;;;;;;3.15;2.27;;;;;;;19.66;69.44;97115.62;1771373;79;21306;-81
2022/06/12 08:05:22;;;;;;;4.78;2.12;;;;;;;19.71;65.94;97111.84;1780941;79;20964;-82
2022/06/12 08:07:48;;;;;;;4.37;2.77;;;;;;;19.81;67.09;97118.41;1800095;78;22312;-82
2022/06/12 08:10:13;;;;;;;5.45;3.00;;;;;;;19.89;67.17;97109.69;1801480;78;21050;-82
2022/06/12 08:12:41;;;;;;;2.95;2.20;;;;;;;19.98;66.24;97108.33;1774743;79;20982;-82
2022/06/12 08:15:09;;;;;;;4.60;2.50;;;;;;;20.06;67.94;97102.76;1806356;78;21006;-82
2022/06/12 08:17:35;;;;;;;3.55;2.60;;;;;;;20.16;66.12;97100.88;1805955;78;20946;-82
2022/06/12 08:22:45;;;;;;;4.08;2.45;;;;;;;20.35;63.61;97114.33;1776741;79;20986;-82
2022/06/12 08:25:11;;;;;;;6.28;2.60;;;;;;;20.46;63.69;97106.67;1774692;79;20955;-82
2022/06/12 08:27:37;;;;;;;4.10;2.22;;;;;;;20.58;61.30;97106.99;1801050;78;21062;-82
2022/06/12 08:30:05;;;;;;;4.90;2.50;;;;;;;20.73;62.50;97108.39;1782860;79;21013;-82
2022/06/12 08:32:32;;;;;;;3.90;2.52;;;;;;;20.86;63.00;97108.98;1767498;80;21031;-82
2022/06/12 08:35:05;;;;;;;4.47;2.47;;;;;;;21.03;61.45;97105.66;1768451;80;20959;-83
2022/06/12 08:37:35;;;;;;;2.77;2.37;;;;;;;21.18;63.00;97107.32;1765727;80;21256;-81
2022/06/12 08:40:01;;;;;;;6.22;2.50;;;;;;;21.30;62.84;97106.80;1745004;81;20914;-82
2022/06/12 08:42:38;;;;;;;4.37;2.72;;;;;;;21.45;62.38;97101.03;1749045;81;22354;-82
2022/06/12 08:45:23;;;;;;;4.65;2.42;;;;;;;21.60;61.71;97102.67;1703919;82;21019;-84
2022/06/12 08:48:04;;;;;;;4.03;2.37;;;;;;;21.76;61.11;97099.80;1752396;80;21370;-82
2022/06/12 08:50:59;;;;;;;5.00;2.58;;;;;;;21.83;62.99;97103.94;1745274;81;21022;-82
2022/06/12 08:53:42;;;;;;;5.28;3.33;;;;;;;21.77;57.77;97100.89;1743113;81;21013;-82
2022/06/12 08:56:13;;;;;;;3.85;3.12;;;;;;;21.85;59.96;97101.05;1730588;81;21042;-82
2022/06/12 08:59:18;;;;;;;4.87;2.33;;;;;;;21.99;60.25;97099.73;1764586;80;21011;-82
2022/06/12 09:01:45;;;;;;;5.55;2.62;;;;;;;22.16;58.43;97091.34;1740053;80;21153;-82
2022/06/12 09:04:18;;;;;;;4.75;2.33;;;;;;;22.32;58.39;97093.73;1755369;81;21412;-81
2022/06/12 09:06:58;;;;;;;3.42;2.20;;;;;;;22.42;58.56;97083.30;1737865;81;21053;-81
2022/06/12 09:09:34;;;;;;;5.00;2.77;;;;;;;22.45;55.50;97093.93;1755957;81;20938;-81
2022/06/12 09:12:35;;;;;;;2.35;2.08;;;;;;;22.49;57.95;97088.45;1735720;81;20973;-82
2022/06/12 09:15:07;;;;;;;5.17;2.60;;;;;;;22.54;57.33;97086.41;1745229;81;21346;-82
2022/06/12 09:18:24;;;;;;;5.20;2.25;;;;;;;22.60;56.12;97081.46;1772336;81;21459;-81
2022/06/12 09:21:13;;;;;;;4.22;2.30;;;;;;;22.63;58.25;97083.13;1751658;81;20927;-81
2022/06/12 09:24:08;;;;;;;5.17;2.20;;;;;;;22.70;58.89;97080.30;1753556;81;20999;-82
2022/06/12 09:26:55;;;;;;;3.20;2.00;;;;;;;22.79;57.02;97076.22;1761008;80;21334;-81
2022/06/12 09:29:53;;;;;;;4.00;2.22;;;;;;;22.84;59.81;97077.64;1706692;82;21080;-81
2022/06/12 09:32:55;;;;;;;4.05;2.40;;;;;;;22.92;60.86;97077.22;1711698;82;21445;-81
2022/06/12 09:35:42;;;;;;;3.83;2.12;;;;;;;22.93;55.46;97074.05;1725985;82;21091;-81
2022/06/12 09:38:31;;;;;;;3.62;2.05;;;;;;;22.95;55.90;97081.25;1723377;82;21028;-82
2022/06/12 09:41:21;;;;;;;3.05;2.40;;;;;;;23.05;57.34;97068.13;1732351;82;21023;-82
2022/06/12 09:44:18;;;;;;;4.00;2.00;;;;;;;23.11;57.34;97067.70;1762960;80;21017;-81
2022/06/12 09:47:14;;;;;;;3.40;2.12;;;;;;;23.14;55.02;97069.85;1773123;80;21051;-81
2022/06/12 09:49:57;;;;;;;6.28;2.67;;;;;;;23.11;53.44;97068.49;1772707;80;20951;-81
2022/06/12 09:52:33;;;;;;;3.10;2.00;;;;;;;23.17;52.57;97066.18;1769972;80;20972;-82
2022/06/12 09:55:13;;;;;;;2.87;1.98;;;;;;;23.09;54.28;97061.81;1779124;80;20989;-81
2022/06/12 09:58:03;;;;;;;3.80;2.20;;;;;;;23.14;56.38;97060.05;1755747;80;20948;-82
2022/06/12 10:00:40;;;;;;;4.65;2.55;;;;;;;23.26;54.50;97044.81;1750693;80;21023;-81
2022/06/12 10:03:17;;;;;;;4.15;2.00;;;;;;;23.33;55.24;97049.42;1735883;80;20940;-81
2022/06/12 10:05:52;;;;;;;3.02;1.90;;;;;;;23.27;55.07;97047.77;1749152;80;21334;-81
2022/06/12 10:08:41;;;;;;;2.22;1.92;;;;;;;23.29;54.34;97047.52;1781100;80;21451;-81
2022/06/12 10:11:21;;;;;;;2.27;1.55;;;;;;;23.32;53.64;97042.52;1781293;80;20979;-82
2022/06/12 10:14:06;;;;;;;4.10;2.12;;;;;;;23.41;53.64;97045.52;1757598;80;21007;-81
2022/06/12 10:16:57;;;;;;;3.42;2.10;;;;;;;23.49;53.46;97045.11;1768026;80;21287;-82
2022/06/12 10:19:28;;;;;;;3.47;2.20;;;;;;;23.49;54.37;97042.98;1782429;80;21416;-82
2022/06/12 10:21:57;;;;;;;2.62;2.15;;;;;;;23.59;55.64;97037.80;1786142;80;21028;-82
2022/06/12 10:24:23;;;;;;;2.98;2.02;;;;;;;23.62;55.54;97038.66;1762148;80;21029;-81
2022/06/12 10:26:59;;;;;;;2.90;2.25;;;;;;;23.65;54.87;97035.50;1772803;80;21005;-82
2022/06/12 10:29:26;;;;;;;3.70;2.02;;;;;;;23.66;56.39;97027.81;1735903;80;21041;-82
2022/06/12 10:32:01;;;;;;;3.25;2.20;;;;;;;23.63;54.39;97020.36;1717512;82;21027;-82
2022/06/12 10:34:30;;;;;;;3.08;1.75;;;;;;;23.65;53.75;97020.38;1763565;80;21096;-82
2022/06/12 10:37:19;;;;;;;2.27;2.08;;;;;;;23.72;52.59;97014.06;1705639;82;20991;-82
2022/06/12 10:39:47;;;;;;;4.75;2.25;;;;;;;23.77;53.91;97020.25;1744875;81;20949;-81
2022/06/12 10:42:31;;;;;;;4.15;2.40;;;;;;;23.81;54.98;97023.20;1737286;81;21400;-82
2022/06/12 10:44:58;;;;;;;3.12;2.02;;;;;;;23.80;52.93;97022.39;1738042;82;21017;-81
2022/06/12 10:47:29;;;;;;;2.52;2.25;;;;;;;23.86;54.50;97021.91;1744345;81;21034;-82
2022/06/12 10:50:16;;;;;;;2.70;2.20;;;;;;;23.98;54.65;97025.22;1730074;81;21393;-81
2022/06/12 10:53:02;;;;;;;3.85;1.85;;;;;;;23.98;54.65;97025.22;1742922;82;21351;-82
2022/06/12 10:55:49;;;;;;;4.30;1.80;;;;;;;23.88;51.62;97016.62;1726504;82;20971;-82
2022/06/12 10:58:20;;;;;;;3.55;2.37;;;;;;;23.93;54.54;97018.02;1677657;82;21065;-82
2022/06/12 11:00:46;;;;;;;3.83;2.83;;;;;;;24.00;51.75;97017.00;1731049;82;21005;-81
2022/06/12 11:03:22;;;;;;;2.35;2.15;;;;;;;24.01;53.15;97014.63;1740154;82;21007;-81
2022/06/12 11:06:15;;;;;;;2.55;2.15;;;;;;;23.93;51.37;97007.41;1757718;81;20926;-82
2022/06/12 11:09:06;;;;;;;4.20;2.15;;;;;;;24.07;53.40;97014.41;1747923;81;21029;-81
2022/06/12 11:12:14;;;;;;;3.90;2.45;;;;;;;24.11;52.28;97014.20;1733352;82;21050;-82
2022/06/12 11:15:18;;;;;;;3.17;2.00;;;;;;;24.15;53.42;97011.83;1730821;81;21023;-81
2022/06/12 11:18:09;;;;;;;3.70;2.27;;;;;;;24.16;52.63;97010.78;1735021;82;21573;-82
2022/06/12 11:20:49;;;;;;;3.85;2.12;;;;;;;24.23;51.80;96998.87;1734265;81;21397;-81
2022/06/12 11:23:43;;;;;;;3.67;1.90;;;;;;;24.36;52.28;96994.23;1729069;82;21366;-81
2022/06/12 11:26:43;;;;;;;5.30;2.90;;;;;;;24.41;51.68;96994.30;1732870;81;21053;-81
2022/06/12 11:29:36;;;;;;;4.85;2.30;;;;;;;24.45;50.48;96988.73;1735243;81;21077;-81
2022/06/12 11:32:16;;;;;;;3.62;2.22;;;;;;;24.45;50.23;96993.52;1743513;81;21003;-82
2022/06/12 11:35:14;;;;;;;3.08;2.20;;;;;;;24.52;52.54;96989.30;1713716;81;20978;-81
2022/06/12 11:38:29;;;;;;;2.83;2.45;;;;;;;24.62;52.09;96986.72;1744164;81;21046;-81
2022/06/12 11:41:46;;;;;;;3.67;2.25;;;;;;;24.80;51.44;96985.50;1753469;81;21325;-81
2022/06/12 11:44:18;;;;;;;4.15;2.12;;;;;;;24.87;53.13;96985.25;1743579;81;21051;-81
2022/06/12 11:47:03;;;;;;;3.72;2.20;;;;;;;24.85;49.84;96977.54;1744114;81;21085;-81
2022/06/12 11:50:00;;;;;;;3.40;2.50;;;;;;;24.81;49.27;96979.12;1721318;81;21035;-81
2022/06/12 11:52:32;;;;;;;5.70;2.35;;;;;;;24.71;50.80;96979.85;1788407;79;21013;-81
2022/06/12 11:55:24;;;;;;;3.55;2.65;;;;;;;24.67;51.11;96976.11;1790297;79;20952;-81
2022/06/12 11:58:01;;;;;;;3.80;2.22;;;;;;;24.72;50.53;96978.80;1779928;79;21116;-81
2022/06/12 12:01:06;;;;;;;3.83;2.60;;;;;;;24.83;51.77;96969.03;1790016;79;21063;-81
2022/06/12 12:04:12;;;;;;;2.83;2.35;;;;;;;24.95;52.34;96968.83;1789026;79;21014;-81
2022/06/12 12:07:14;;;;;;;2.80;2.08;;;;;;;24.97;51.03;96960.86;1787940;79;20938;-82
2022/06/12 12:10:03;;;;;;;2.72;2.20;;;;;;;25.05;49.42;96956.39;1780052;79;21372;-81
2022/06/12 12:12:34;;;;;;;3.42;2.00;;;;;;;25.08;49.14;96948.45;1778358;79;20961;-81
2022/06/12 12:15:02;;;;;;;2.80;2.17;;;;;;;25.11;51.62;96948.72;1787145;79;20950;-81
2022/06/12 12:17:34;;;;;;;2.83;1.90;;;;;;;25.18;49.63;96955.12;1792464;79;21479;-80
2022/06/12 12:20:07;;;;;;;3.35;2.00;;;;;;;25.19;48.69;96950.06;1749725;81;20929;-81
2022/06/12 12:22:41;;;;;;;3.02;2.52;;;;;;;25.11;49.10;96946.06;1744556;81;20990;-81
2022/06/12 12:25:42;;;;;;;5.72;2.90;;;;;;;25.07;50.66;96935.69;1742193;81;20945;-81
2022/06/12 12:28:25;;;;;;;2.92;2.08;;;;;;;25.20;50.16;96949.53;1712391;81;20971;-82
2022/06/12 12:30:54;;;;;;;3.12;2.40;;;;;;;25.20;50.16;96949.53;1768297;80;21035;-81